Houston, Texas
Traffic Map
Current Weather Conditions
Houston, Texas
Few Clouds
Few Clouds
77°
Feels Like: 78°
Wind Chill: 77° Ceiling: Unl
Heat Index: 78° Visibility: 5mi
Dew Point: 75° Wind: 0mph
Humidity: 94% Direction: ° ()
Pressure: 29.97in Gusts: 0mph
Raw Report DataKMCJ 170535Z AUTO 00000KT 5SM FEW001 25/24 A2997 RMK AO1
Traffic Incident Summary
Active as of:
Severity:
Category:
InformationThere was an issue retrieving the traffic information for this location. Please try a different location or try again shortly.
Advertisements
Track Severe Weather on mobile